createdAt,value
2018-08-13T00:00:40.929Z,33.99
2018-08-13T00:01:40.955Z,33.89
2018-08-13T00:02:40.983Z,33.87
2018-08-13T00:03:41.028Z,33.97
2018-08-13T00:04:41.036Z,33.80
2018-08-13T00:05:41.062Z,34.07
2018-08-13T00:06:41.091Z,33.78
2018-08-13T00:07:41.115Z,33.97
2018-08-13T00:08:41.188Z,34.07
2018-08-13T00:09:41.168Z,33.78
2018-08-13T00:10:41.195Z,33.87
2018-08-13T00:11:41.264Z,33.97
2018-08-13T00:12:41.251Z,33.97
2018-08-13T00:13:41.279Z,33.97
2018-08-13T00:14:41.301Z,33.78
2018-08-13T00:15:41.329Z,34.07
2018-08-13T00:16:41.355Z,33.59
2018-08-13T00:17:41.445Z,33.69
2018-08-13T00:18:41.409Z,33.97
2018-08-13T00:19:41.436Z,34.27
2018-08-13T00:20:41.463Z,33.97
2018-08-13T00:21:41.488Z,34.07
2018-08-13T00:22:41.514Z,34.07
2018-08-13T00:23:41.541Z,34.07
2018-08-13T00:24:41.579Z,33.97
2018-08-13T00:25:41.594Z,33.97
2018-08-13T00:26:41.621Z,34.07
2018-08-13T00:27:41.651Z,34.07
2018-08-13T00:28:41.676Z,33.97
2018-08-13T00:29:41.701Z,34.07
2018-08-13T00:30:41.728Z,34.07
2018-08-13T00:31:41.754Z,33.97
2018-08-13T00:32:41.782Z,33.97
2018-08-13T00:33:41.807Z,33.97
2018-08-13T00:34:41.834Z,34.07
2018-08-13T00:35:41.873Z,34.07
2018-08-13T00:36:41.888Z,34.07
2018-08-13T00:37:41.933Z,34.07
2018-08-13T00:38:41.943Z,33.87
2018-08-13T00:39:41.968Z,34.07
2018-08-13T00:40:41.995Z,33.97
2018-08-13T00:41:42.020Z,33.87
2018-08-13T00:42:42.046Z,33.59
2018-08-13T00:43:42.074Z,33.78
2018-08-13T00:44:42.101Z,33.87
2018-08-13T00:45:42.126Z,33.78
2018-08-13T00:46:42.154Z,33.87
2018-08-13T00:47:42.180Z,33.69
2018-08-13T00:48:42.222Z,33.59
2018-08-13T00:49:42.279Z,33.78
2018-08-13T00:50:42.260Z,33.97
2018-08-13T00:51:42.288Z,33.69
2018-08-13T00:52:42.314Z,33.97
2018-08-13T00:53:42.360Z,33.97
2018-08-13T00:54:42.366Z,33.97
2018-08-13T00:55:42.395Z,34.07
2018-08-13T00:56:42.438Z,34.07
2018-08-13T00:57:42.447Z,33.97
2018-08-13T00:58:42.472Z,34.07
2018-08-13T00:59:42.501Z,33.87
2018-08-13T01:00:42.527Z,34.07
2018-08-13T01:01:42.553Z,34.07
2018-08-13T01:02:42.579Z,33.87
2018-08-13T01:03:42.605Z,34.07
2018-08-13T01:04:42.632Z,33.97
2018-08-13T01:05:42.659Z,34.07
2018-08-13T01:06:42.685Z,33.97
2018-08-13T01:07:42.712Z,33.97
2018-08-13T01:08:42.739Z,33.97
2018-08-13T01:09:42.765Z,34.07
2018-08-13T01:10:42.792Z,34.07
2018-08-13T01:11:42.820Z,34.07
2018-08-13T01:12:42.845Z,34.07
2018-08-13T01:13:42.872Z,33.97
2018-08-13T01:14:42.898Z,34.07
2018-08-13T01:15:42.944Z,33.59
2018-08-13T01:16:42.952Z,33.69
2018-08-13T01:17:42.978Z,33.87
2018-08-13T01:18:43.006Z,33.59
2018-08-13T01:19:43.032Z,33.59
2018-08-13T01:20:43.059Z,33.49
2018-08-13T01:21:43.085Z,33.39
2018-08-13T01:22:43.112Z,33.49
2018-08-13T01:23:43.138Z,33.59
2018-08-13T01:24:43.166Z,33.59
2018-08-13T01:25:43.191Z,33.39
2018-08-13T01:26:43.218Z,33.59
2018-08-13T01:27:43.245Z,33.49
2018-08-13T01:28:43.272Z,33.39
2018-08-13T01:29:43.299Z,33.49
2018-08-13T01:30:43.324Z,33.59
2018-08-13T01:31:43.352Z,33.59
2018-08-13T01:32:43.378Z,33.59
2018-08-13T01:33:43.406Z,33.49
2018-08-13T01:34:43.431Z,33.87
2018-08-13T01:35:43.458Z,33.86
2018-08-13T01:36:43.526Z,33.78
2018-08-13T01:37:43.510Z,33.59
2018-08-13T01:38:43.538Z,33.76
2018-08-13T01:39:43.567Z,33.59
2018-08-13T01:40:43.591Z,33.87
2018-08-13T01:41:43.617Z,33.87
2018-08-13T01:42:43.644Z,33.59
2018-08-13T01:43:43.671Z,33.59
2018-08-13T01:44:43.698Z,33.49
2018-08-13T01:45:43.723Z,33.69
2018-08-13T01:46:43.798Z,33.49
2018-08-13T01:47:43.777Z,33.49
2018-08-13T01:48:43.803Z,33.49
2018-08-13T01:49:43.830Z,33.47
2018-08-13T01:50:43.856Z,33.59
2018-08-13T01:51:43.884Z,33.59
2018-08-13T01:52:43.913Z,33.49
2018-08-13T01:53:43.940Z,33.49
2018-08-13T01:54:43.962Z,33.49
2018-08-13T01:55:43.989Z,33.49
2018-08-13T01:56:44.017Z,33.49
2018-08-13T01:57:44.071Z,33.49
2018-08-13T01:58:44.068Z,33.39
2018-08-13T01:59:44.095Z,33.59
2018-08-13T02:00:44.122Z,33.47
2018-08-13T02:01:44.214Z,33.49
2018-08-13T02:02:44.175Z,33.49
2018-08-13T02:03:44.202Z,33.49
2018-08-13T02:04:44.228Z,33.49
2018-08-13T02:05:44.254Z,33.39
2018-08-13T02:06:44.281Z,33.59
2018-08-13T02:07:44.307Z,33.39
2018-08-13T02:08:44.335Z,33.78
2018-08-13T02:09:44.360Z,33.39
2018-08-13T02:10:44.387Z,33.29
2018-08-13T02:11:44.413Z,33.29
2018-08-13T02:12:44.440Z,33.10
2018-08-13T02:13:44.467Z,33.39
2018-08-13T02:14:44.494Z,33.39
2018-08-13T02:15:44.520Z,33.01
2018-08-13T02:16:44.549Z,33.29
2018-08-13T02:17:44.572Z,33.39
2018-08-13T02:18:44.599Z,33.39
2018-08-13T02:19:44.625Z,33.39
2018-08-13T02:20:44.661Z,33.29
2018-08-13T02:21:44.678Z,33.29
2018-08-13T02:22:44.720Z,33.49
2018-08-13T02:23:44.732Z,33.29
2018-08-13T02:24:44.761Z,33.20
2018-08-13T02:25:44.784Z,33.39
2018-08-13T02:26:44.811Z,33.39
2018-08-13T02:27:44.837Z,33.29
2018-08-13T02:28:44.867Z,33.29
2018-08-13T02:29:44.890Z,33.29
2018-08-13T02:30:44.917Z,33.59
2018-08-13T02:31:44.945Z,33.01
2018-08-13T02:32:44.971Z,33.39
2018-08-13T02:33:44.996Z,33.20
2018-08-13T02:34:45.026Z,33.10
2018-08-13T02:35:45.050Z,33.10
2018-08-13T02:36:45.077Z,33.29
2018-08-13T02:37:45.103Z,33.49
2018-08-13T02:38:45.129Z,33.10
2018-08-13T02:39:45.156Z,33.20
2018-08-13T02:40:45.183Z,33.01
2018-08-13T02:41:45.209Z,33.20
2018-08-13T02:42:45.238Z,33.18
2018-08-13T02:43:45.263Z,33.49
2018-08-13T02:44:45.289Z,33.28
2018-08-13T02:45:45.314Z,33.37
2018-08-13T02:46:45.342Z,33.29
2018-08-13T02:47:45.368Z,33.29
2018-08-13T02:48:45.394Z,33.28
2018-08-13T02:49:45.420Z,33.18
2018-08-13T02:50:45.446Z,33.18
2018-08-13T02:51:45.473Z,33.76
2018-08-13T02:52:45.501Z,33.28
2018-08-13T02:53:45.526Z,33.37
2018-08-13T02:54:45.556Z,33.28
2018-08-13T02:55:45.580Z,33.18
2018-08-13T02:56:45.606Z,33.18
2018-08-13T02:57:45.632Z,33.28
2018-08-13T02:58:45.660Z,33.28
2018-08-13T02:59:45.690Z,33.18
2018-08-13T03:00:45.743Z,33.28
2018-08-13T03:01:45.739Z,33.18
2018-08-13T03:02:45.794Z,33.67
2018-08-13T03:03:45.791Z,33.09
2018-08-13T03:04:45.869Z,33.28
2018-08-13T03:05:45.848Z,33.01
2018-08-13T03:06:45.871Z,33.10
2018-08-13T03:07:45.898Z,33.01
2018-08-13T03:08:45.946Z,33.09
2018-08-13T03:09:45.949Z,32.91
2018-08-13T03:10:45.976Z,33.01
2018-08-13T03:11:46.003Z,33.10
2018-08-13T03:12:46.030Z,33.39
2018-08-13T03:13:46.055Z,33.20
2018-08-13T03:14:46.088Z,32.81
2018-08-13T03:15:46.109Z,33.20
2018-08-13T03:16:46.137Z,33.39
2018-08-13T03:17:46.161Z,32.81
2018-08-13T03:18:46.188Z,33.49
2018-08-13T03:19:46.215Z,33.39
2018-08-13T03:20:46.242Z,33.29
2018-08-13T03:21:46.289Z,33.10
2018-08-13T03:22:46.294Z,33.01
2018-08-13T03:23:46.321Z,33.20
2018-08-13T03:24:46.347Z,33.01
2018-08-13T03:25:46.373Z,32.81
2018-08-13T03:26:46.400Z,33.18
2018-08-13T03:27:46.427Z,32.91
2018-08-13T03:28:46.454Z,33.20
2018-08-13T03:29:46.479Z,33.29
2018-08-13T03:30:46.507Z,33.01
2018-08-13T03:31:46.533Z,32.81
2018-08-13T03:32:46.559Z,33.01
2018-08-13T03:33:46.586Z,33.28
2018-08-13T03:34:46.611Z,33.29
2018-08-13T03:35:46.643Z,32.89
2018-08-13T03:36:46.666Z,32.99
2018-08-13T03:37:46.690Z,32.99
2018-08-13T03:38:46.718Z,32.81
2018-08-13T03:39:46.745Z,33.29
2018-08-13T03:40:46.771Z,33.29
2018-08-13T03:41:46.798Z,33.29
2018-08-13T03:42:46.824Z,33.01
2018-08-13T03:43:46.850Z,32.91
2018-08-13T03:44:46.877Z,33.10
2018-08-13T03:45:46.903Z,33.20
2018-08-13T03:46:46.930Z,32.81
2018-08-13T03:47:46.956Z,33.01
2018-08-13T03:48:46.983Z,32.91
2018-08-13T03:49:47.008Z,32.71
2018-08-13T03:50:47.036Z,32.81
2018-08-13T03:51:47.062Z,32.91
2018-08-13T03:52:47.089Z,32.71
2018-08-13T03:53:47.186Z,32.91
2018-08-13T03:54:47.161Z,33.01
2018-08-13T03:55:47.174Z,32.91
2018-08-13T03:56:47.195Z,33.01
2018-08-13T03:57:47.220Z,33.01
2018-08-13T03:58:47.248Z,32.81
2018-08-13T03:59:47.274Z,33.01
2018-08-13T04:00:47.302Z,32.62
2018-08-13T04:01:47.326Z,32.81
2018-08-13T04:02:47.355Z,32.91
2018-08-13T04:03:47.410Z,32.71
2018-08-13T04:04:47.408Z,32.62
2018-08-13T04:05:47.432Z,32.81
2018-08-13T04:06:47.460Z,32.71
2018-08-13T04:07:47.486Z,33.01
2018-08-13T04:08:47.512Z,32.71
2018-08-13T04:09:47.538Z,32.71
2018-08-13T04:10:47.565Z,32.91
2018-08-13T04:11:47.592Z,33.01
2018-08-13T04:12:47.671Z,32.91
2018-08-13T04:13:47.644Z,32.91
2018-08-13T04:14:47.671Z,32.81
2018-08-13T04:15:47.697Z,32.81
2018-08-13T04:16:47.766Z,32.81
2018-08-13T04:17:47.751Z,32.71
2018-08-13T04:18:47.778Z,32.81
2018-08-13T04:19:47.807Z,32.81
2018-08-13T04:20:47.831Z,32.81
2018-08-13T04:21:47.856Z,32.91
2018-08-13T04:22:47.885Z,32.81
2018-08-13T04:23:47.910Z,32.81
2018-08-13T04:24:47.936Z,32.91
2018-08-13T04:25:47.962Z,32.81
2018-08-13T04:26:47.989Z,32.81
2018-08-13T04:27:48.017Z,32.91
2018-08-13T04:28:48.042Z,32.91
2018-08-13T04:29:48.068Z,32.81
2018-08-13T04:30:48.096Z,32.91
2018-08-13T04:31:48.121Z,32.91
2018-08-13T04:32:48.202Z,32.91
2018-08-13T04:33:48.174Z,33.01
2018-08-13T04:34:48.200Z,32.81
2018-08-13T04:35:48.228Z,33.01
2018-08-13T04:36:48.254Z,32.91
2018-08-13T04:37:48.280Z,32.91
2018-08-13T04:38:48.307Z,32.81
2018-08-13T04:39:48.334Z,32.81
2018-08-13T04:40:48.361Z,32.91
2018-08-13T04:41:48.387Z,32.71
2018-08-13T04:42:48.417Z,32.62
2018-08-13T04:43:48.440Z,32.81
2018-08-13T04:44:48.467Z,32.62
2018-08-13T04:45:48.499Z,32.71
2018-08-13T04:46:48.519Z,32.71
2018-08-13T04:47:48.545Z,32.91
2018-08-13T04:48:48.575Z,32.64
2018-08-13T04:49:48.598Z,32.54
2018-08-13T04:50:48.637Z,32.44
2018-08-13T04:51:48.653Z,32.54
2018-08-13T04:52:48.693Z,32.54
2018-08-13T04:53:48.704Z,32.54
2018-08-13T04:54:48.736Z,32.54
2018-08-13T04:55:48.757Z,32.64
2018-08-13T04:56:48.785Z,32.82
2018-08-13T04:57:48.836Z,32.82
2018-08-13T04:58:48.882Z,32.73
2018-08-13T04:59:48.864Z,32.73
2018-08-13T05:00:48.891Z,32.92
2018-08-13T05:01:48.917Z,32.73
2018-08-13T05:02:48.943Z,32.82
2018-08-13T05:03:48.970Z,32.82
2018-08-13T05:04:48.996Z,32.92
2018-08-13T05:05:49.022Z,32.92
2018-08-13T05:06:49.090Z,33.02
2018-08-13T05:07:49.076Z,32.82
2018-08-13T05:08:49.124Z,32.92
2018-08-13T05:09:49.129Z,32.92
2018-08-13T05:10:49.162Z,32.73
2018-08-13T05:11:49.182Z,33.02
2018-08-13T05:12:49.212Z,32.92
2018-08-13T05:13:49.236Z,32.73
2018-08-13T05:14:49.280Z,33.02
2018-08-13T05:15:49.290Z,32.82
2018-08-13T05:16:49.319Z,32.92
2018-08-13T05:17:49.342Z,32.82
2018-08-13T05:18:49.369Z,32.82
2018-08-13T05:19:49.417Z,32.82
2018-08-13T05:20:49.450Z,32.92
2018-08-13T05:21:49.465Z,32.92
2018-08-13T05:22:49.477Z,32.92
2018-08-13T05:23:49.503Z,32.82
2018-08-13T05:24:49.529Z,33.02
2018-08-13T05:25:49.556Z,32.82
2018-08-13T05:26:49.581Z,32.73
2018-08-13T05:27:49.608Z,32.92
2018-08-13T05:28:49.634Z,32.92
2018-08-13T05:29:49.662Z,32.92
2018-08-13T05:30:49.687Z,32.82
2018-08-13T05:31:49.714Z,32.82
2018-08-13T05:32:49.744Z,32.82
2018-08-13T05:33:49.767Z,32.82
2018-08-13T05:34:49.794Z,32.92
2018-08-13T05:35:49.820Z,32.82
2018-08-13T05:36:49.847Z,32.92
2018-08-13T05:37:49.875Z,32.92
2018-08-13T05:38:49.924Z,32.82
2018-08-13T05:39:49.928Z,32.82
2018-08-13T05:40:49.954Z,32.92
2018-08-13T05:41:49.979Z,33.02
2018-08-13T05:42:50.006Z,33.02
2018-08-13T05:43:50.034Z,33.12
2018-08-13T05:44:50.094Z,32.82
2018-08-13T05:45:50.088Z,32.92
2018-08-13T05:46:50.113Z,33.12
2018-08-13T05:47:50.139Z,32.82
2018-08-13T05:48:50.166Z,32.54
2018-08-13T05:49:50.192Z,32.92
2018-08-13T05:50:50.219Z,32.92
2018-08-13T05:51:50.245Z,33.02
2018-08-13T05:52:50.292Z,32.73
2018-08-13T05:53:50.303Z,32.82
2018-08-13T05:54:50.328Z,32.24
2018-08-13T05:55:50.352Z,32.34
2018-08-13T05:56:50.377Z,33.31
2018-08-13T05:57:50.403Z,33.22
2018-08-13T05:58:50.440Z,33.22
2018-08-13T05:59:50.461Z,33.02
2018-08-13T06:00:50.486Z,33.31
2018-08-13T06:01:50.511Z,33.31
2018-08-13T06:02:50.540Z,33.22
2018-08-13T06:03:50.564Z,33.22
2018-08-13T06:04:50.592Z,33.22
2018-08-13T06:05:50.628Z,33.22
2018-08-13T06:06:50.646Z,33.22
2018-08-13T06:07:50.670Z,33.31
2018-08-13T06:08:50.697Z,33.41
2018-08-13T06:09:50.727Z,32.73
2018-08-13T06:10:50.750Z,33.31
2018-08-13T06:11:50.790Z,33.12
2018-08-13T06:12:50.804Z,33.22
2018-08-13T06:13:50.830Z,33.31
2018-08-13T06:14:50.858Z,33.02
2018-08-13T06:15:50.883Z,33.22
2018-08-13T06:16:50.912Z,33.22
2018-08-13T06:17:50.935Z,33.31
2018-08-13T06:18:50.963Z,33.31
2018-08-13T06:19:50.990Z,32.92
2018-08-13T06:20:51.017Z,33.41
2018-08-13T06:21:51.042Z,32.82
2018-08-13T06:22:51.070Z,33.12
2018-08-13T06:23:51.096Z,33.41
2018-08-13T06:24:51.125Z,33.41
2018-08-13T06:25:51.150Z,32.54
2018-08-13T06:26:51.178Z,33.14
2018-08-13T06:27:51.204Z,32.44
2018-08-13T06:28:51.233Z,32.17
2018-08-13T06:29:51.261Z,32.92
2018-08-13T06:30:51.283Z,33.12
2018-08-13T06:31:51.310Z,33.22
2018-08-13T06:32:51.337Z,33.14
2018-08-13T06:33:51.363Z,33.14
2018-08-13T06:34:51.402Z,32.94
2018-08-13T06:35:51.426Z,33.04
2018-08-13T06:36:51.443Z,33.02
2018-08-13T06:37:51.502Z,33.23
2018-08-13T06:38:51.494Z,33.22
2018-08-13T06:39:51.521Z,33.22
2018-08-13T06:40:51.573Z,33.22
2018-08-13T06:41:51.575Z,33.31
2018-08-13T06:42:51.601Z,33.12
2018-08-13T06:43:51.631Z,33.14
2018-08-13T06:44:51.654Z,32.44
2018-08-13T06:45:51.681Z,33.22
2018-08-13T06:46:51.736Z,32.64
2018-08-13T06:47:51.773Z,33.12
2018-08-13T06:48:51.785Z,33.23
2018-08-13T06:49:51.795Z,33.04
2018-08-13T06:50:51.813Z,32.94
2018-08-13T06:51:51.846Z,33.23
2018-08-13T06:52:51.868Z,33.04
2018-08-13T06:53:51.904Z,33.04
2018-08-13T06:54:51.922Z,33.04
2018-08-13T06:55:51.948Z,33.23
2018-08-13T06:56:51.978Z,33.14
2018-08-13T06:57:52.007Z,33.04
2018-08-13T06:58:52.028Z,33.14
2018-08-13T06:59:52.054Z,33.14
2018-08-13T07:00:52.122Z,33.62
2018-08-13T07:01:52.109Z,33.04
2018-08-13T07:02:52.134Z,33.42
2018-08-13T07:03:52.161Z,33.14
2018-08-13T07:04:52.188Z,33.23
2018-08-13T07:05:52.213Z,33.33
2018-08-13T07:06:52.240Z,33.04
2018-08-13T07:07:52.267Z,33.14
2018-08-13T07:08:52.294Z,33.14
2018-08-13T07:09:52.320Z,33.33
2018-08-13T07:10:52.351Z,33.14
2018-08-13T07:11:52.374Z,33.42
2018-08-13T07:12:52.413Z,33.23
2018-08-13T07:13:52.427Z,33.04
2018-08-13T07:14:52.456Z,33.23
2018-08-13T07:15:52.482Z,33.23
2018-08-13T07:16:52.508Z,33.04
2018-08-13T07:17:52.535Z,32.84
2018-08-13T07:18:52.563Z,33.23
2018-08-13T07:19:52.617Z,33.04
2018-08-13T07:20:52.614Z,32.94
2018-08-13T07:21:52.640Z,33.14
2018-08-13T07:22:52.670Z,33.34
2018-08-13T07:23:52.696Z,33.23
2018-08-13T07:24:52.722Z,33.33
2018-08-13T07:25:52.749Z,33.23
2018-08-13T07:26:52.792Z,33.33
2018-08-13T07:27:52.863Z,33.33
2018-08-13T07:28:52.830Z,33.33
2018-08-13T07:29:52.868Z,33.33
2018-08-13T07:30:52.882Z,32.84
2018-08-13T07:31:52.909Z,32.94
2018-08-13T07:32:52.939Z,33.25
2018-08-13T07:33:53.002Z,33.23
2018-08-13T07:34:52.989Z,33.23
2018-08-13T07:35:53.016Z,33.23
2018-08-13T07:36:53.044Z,33.23
2018-08-13T07:37:53.068Z,33.23
2018-08-13T07:38:53.120Z,32.94
2018-08-13T07:39:53.123Z,33.23
2018-08-13T07:40:53.150Z,33.25
2018-08-13T07:41:53.175Z,33.33
2018-08-13T07:42:53.203Z,33.23
2018-08-13T07:43:53.230Z,33.04
2018-08-13T07:44:53.262Z,33.14
2018-08-13T07:45:53.348Z,33.33
2018-08-13T07:46:53.318Z,33.14
2018-08-13T07:47:53.370Z,33.33
2018-08-13T07:48:53.380Z,33.51
2018-08-13T07:49:53.391Z,33.41
2018-08-13T07:50:53.419Z,33.31
2018-08-13T07:51:53.516Z,33.41
2018-08-13T07:52:53.471Z,33.51
2018-08-13T07:53:53.499Z,33.41
2018-08-13T07:54:53.526Z,33.60
2018-08-13T07:55:53.550Z,33.60
2018-08-13T07:56:53.578Z,33.51
2018-08-13T07:57:53.604Z,33.70
2018-08-13T07:58:53.630Z,33.60
2018-08-13T07:59:53.668Z,33.60
2018-08-13T08:00:53.685Z,33.60
2018-08-13T08:01:53.710Z,33.60
2018-08-13T08:02:53.737Z,33.70
2018-08-13T08:03:53.764Z,33.80
2018-08-13T08:04:53.795Z,33.70
2018-08-13T08:05:53.821Z,33.80
2018-08-13T08:06:53.851Z,33.80
2018-08-13T08:07:53.870Z,33.60
2018-08-13T08:08:53.897Z,33.60
2018-08-13T08:09:53.925Z,33.70
2018-08-13T08:10:53.949Z,33.80
2018-08-13T08:11:53.981Z,33.70
2018-08-13T08:12:54.003Z,33.99
2018-08-13T08:13:54.036Z,34.09
2018-08-13T08:14:54.058Z,34.09
2018-08-13T08:15:54.106Z,34.07
2018-08-13T08:16:54.110Z,34.09
2018-08-13T08:17:54.136Z,33.87
2018-08-13T08:18:54.179Z,34.07
2018-08-13T08:19:54.192Z,34.07
2018-08-13T08:20:54.218Z,34.07
2018-08-13T08:21:54.244Z,34.07
2018-08-13T08:22:54.272Z,34.09
2018-08-13T08:23:54.295Z,33.69
2018-08-13T08:24:54.322Z,33.59
2018-08-13T08:25:54.351Z,33.78
2018-08-13T08:26:54.380Z,33.69
2018-08-13T08:27:54.403Z,33.69
2018-08-13T08:28:54.428Z,33.60
2018-08-13T08:29:54.456Z,33.51
2018-08-13T08:30:54.483Z,33.59
2018-08-13T08:31:54.549Z,33.49
2018-08-13T08:32:54.540Z,33.59
2018-08-13T08:33:54.561Z,33.78
2018-08-13T08:34:54.588Z,33.39
2018-08-13T08:35:54.614Z,33.49
2018-08-13T08:36:54.640Z,33.59
2018-08-13T08:37:54.670Z,33.49
2018-08-13T08:38:54.697Z,33.49
2018-08-13T08:39:54.720Z,33.49
2018-08-13T08:40:54.890Z,33.39
2018-08-13T08:41:54.772Z,33.49
2018-08-13T08:42:54.799Z,33.59
2018-08-13T08:43:54.826Z,33.49
2018-08-13T08:44:54.858Z,33.49
2018-08-13T08:45:54.896Z,33.59
2018-08-13T08:46:54.906Z,33.49
2018-08-13T08:47:54.932Z,33.49
2018-08-13T08:48:54.959Z,33.49
2018-08-13T08:49:54.987Z,33.49
2018-08-13T08:50:55.011Z,33.59
2018-08-13T08:51:55.039Z,33.87
2018-08-13T08:52:55.066Z,33.29
2018-08-13T08:53:55.091Z,33.60
2018-08-13T08:54:55.117Z,33.29
2018-08-13T08:55:55.146Z,33.49
2018-08-13T08:56:55.171Z,33.39
2018-08-13T08:57:55.195Z,33.41
2018-08-13T08:58:55.244Z,33.39
2018-08-13T08:59:55.249Z,33.29
2018-08-13T09:00:55.285Z,33.10
2018-08-13T09:01:55.316Z,33.29
2018-08-13T09:02:55.328Z,33.39
2018-08-13T09:03:55.356Z,33.59
2018-08-13T09:04:55.385Z,33.59
2018-08-13T09:05:55.522Z,33.39
2018-08-13T09:06:56.235Z,33.59
2018-08-13T09:07:55.465Z,33.39
2018-08-13T09:08:55.509Z,33.29
2018-08-13T09:09:55.516Z,33.59
2018-08-13T09:10:55.540Z,33.39
2018-08-13T09:11:55.568Z,33.41
2018-08-13T09:12:55.595Z,33.29
2018-08-13T09:13:55.619Z,33.39
2018-08-13T09:14:55.650Z,33.29
2018-08-13T09:15:55.673Z,33.39
2018-08-13T09:16:55.703Z,33.39
2018-08-13T09:17:55.727Z,33.69
2018-08-13T09:18:55.759Z,33.49
2018-08-13T09:19:55.824Z,33.59
2018-08-13T09:20:55.806Z,33.49
2018-08-13T09:21:55.833Z,33.59
2018-08-13T09:22:55.859Z,33.29
2018-08-13T09:23:55.886Z,33.49
2018-08-13T09:24:55.912Z,33.59
2018-08-13T09:25:55.938Z,33.29
2018-08-13T09:26:55.969Z,33.49
2018-08-13T09:27:55.991Z,33.39
2018-08-13T09:28:56.022Z,33.59
2018-08-13T09:29:56.056Z,33.49
2018-08-13T09:30:56.069Z,33.20
2018-08-13T09:31:56.097Z,33.29
2018-08-13T09:32:56.130Z,33.39
2018-08-13T09:33:56.179Z,33.49
2018-08-13T09:34:56.175Z,33.29
2018-08-13T09:35:56.202Z,33.49
2018-08-13T09:36:56.229Z,33.49
2018-08-13T09:37:56.256Z,33.20
2018-08-13T09:38:56.301Z,33.78
2018-08-13T09:39:56.335Z,33.59
2018-08-13T09:40:56.335Z,33.10
2018-08-13T09:41:56.362Z,33.49
2018-08-13T09:42:56.387Z,33.29
2018-08-13T09:43:56.415Z,33.49
2018-08-13T09:44:56.440Z,33.39
2018-08-13T09:45:56.465Z,33.49
2018-08-13T09:46:56.492Z,33.39
2018-08-13T09:47:56.545Z,33.39
2018-08-13T09:48:56.546Z,33.39
2018-08-13T09:49:56.572Z,33.59
2018-08-13T09:50:56.599Z,33.29
2018-08-13T09:51:56.644Z,33.59
2018-08-13T09:52:56.652Z,33.29
2018-08-13T09:53:56.783Z,33.59
2018-08-13T09:54:56.704Z,33.29
2018-08-13T09:55:56.730Z,33.59
2018-08-13T09:56:56.757Z,33.39
2018-08-13T09:57:56.783Z,33.10
2018-08-13T09:58:56.809Z,33.29
2018-08-13T09:59:56.839Z,33.01
2018-08-13T10:00:56.863Z,33.29
2018-08-13T10:01:56.893Z,33.10
2018-08-13T10:02:56.915Z,33.10
2018-08-13T10:03:56.942Z,33.10
2018-08-13T10:04:56.971Z,33.01
2018-08-13T10:05:56.995Z,33.10
2018-08-13T10:06:57.021Z,33.29
2018-08-13T10:07:57.048Z,32.91
2018-08-13T10:08:57.074Z,33.29
2018-08-13T10:09:57.104Z,33.01
2018-08-13T10:10:57.170Z,33.10
2018-08-13T10:11:57.156Z,33.20
2018-08-13T10:12:57.185Z,33.01
2018-08-13T10:13:57.207Z,32.81
2018-08-13T10:14:57.234Z,33.49
2018-08-13T10:15:57.288Z,33.49
2018-08-13T10:16:57.288Z,33.29
2018-08-13T10:17:57.359Z,33.29
2018-08-13T10:18:57.368Z,33.29
2018-08-13T10:19:57.367Z,33.10
2018-08-13T10:20:57.391Z,33.31
2018-08-13T10:21:57.418Z,33.22
2018-08-13T10:22:57.445Z,33.22
2018-08-13T10:23:57.473Z,33.31
2018-08-13T10:24:57.498Z,33.31
2018-08-13T10:25:57.523Z,33.12
2018-08-13T10:26:57.551Z,32.92
2018-08-13T10:27:57.580Z,33.02
2018-08-13T10:28:57.606Z,32.73
2018-08-13T10:29:57.630Z,32.92
2018-08-13T10:30:57.657Z,32.92
2018-08-13T10:31:57.684Z,32.82
2018-08-13T10:32:57.737Z,32.92
2018-08-13T10:33:57.735Z,32.82
2018-08-13T10:34:57.763Z,32.84
2018-08-13T10:35:57.789Z,32.92
2018-08-13T10:36:57.816Z,32.82
2018-08-13T10:37:57.843Z,33.02
2018-08-13T10:38:57.870Z,32.94
2018-08-13T10:39:57.930Z,32.65
2018-08-13T10:40:57.926Z,32.94
2018-08-13T10:41:57.950Z,32.56
2018-08-13T10:42:57.976Z,32.75
2018-08-13T10:43:58.002Z,32.65
2018-08-13T10:44:58.157Z,32.56
2018-08-13T10:45:58.055Z,32.65
2018-08-13T10:46:58.082Z,32.65
2018-08-13T10:47:58.110Z,32.56
2018-08-13T10:48:58.142Z,32.46
2018-08-13T10:49:58.162Z,32.46
2018-08-13T10:50:58.190Z,32.46
2018-08-13T10:51:58.215Z,32.46
2018-08-13T10:52:58.244Z,32.36
2018-08-13T10:53:58.276Z,32.46
2018-08-13T10:54:58.298Z,32.46
2018-08-13T10:55:58.322Z,32.75
2018-08-13T10:56:58.351Z,32.56
2018-08-13T10:57:58.376Z,32.65
2018-08-13T10:58:58.402Z,32.36
2018-08-13T10:59:58.432Z,32.36
2018-08-13T11:00:58.458Z,32.36
2018-08-13T11:01:58.484Z,32.46
2018-08-13T11:02:58.594Z,32.36
2018-08-13T11:03:58.541Z,32.26
2018-08-13T11:04:58.563Z,32.46
2018-08-13T11:05:58.596Z,32.37
2018-08-13T11:06:58.654Z,32.56
2018-08-13T11:07:58.653Z,32.36
2018-08-13T11:08:58.675Z,32.26
2018-08-13T11:09:58.698Z,32.46
2018-08-13T11:10:58.727Z,32.47
2018-08-13T11:11:58.752Z,32.37
2018-08-13T11:12:58.778Z,32.37
2018-08-13T11:13:58.845Z,32.37
2018-08-13T11:14:58.830Z,32.28
2018-08-13T11:15:58.859Z,32.28
2018-08-13T11:16:58.883Z,32.37
2018-08-13T11:17:58.911Z,32.37
2018-08-13T11:18:58.936Z,32.18
2018-08-13T11:19:58.964Z,31.99
2018-08-13T11:20:58.991Z,32.09
2018-08-13T11:21:59.017Z,32.37
2018-08-13T11:22:59.045Z,32.09
2018-08-13T11:23:59.072Z,32.18
2018-08-13T11:24:59.099Z,32.18
2018-08-13T11:25:59.127Z,32.18
2018-08-13T11:26:59.187Z,32.28
2018-08-13T11:27:59.190Z,32.37
2018-08-13T11:28:59.205Z,32.37
2018-08-13T11:29:59.231Z,32.28
2018-08-13T11:30:59.264Z,32.18
2018-08-13T11:31:59.285Z,32.28
2018-08-13T11:32:59.312Z,32.28
2018-08-13T11:33:59.339Z,32.47
2018-08-13T11:34:59.365Z,32.18
2018-08-13T11:35:59.394Z,32.37
2018-08-13T11:36:59.419Z,32.37
2018-08-13T11:37:59.446Z,32.37
2018-08-13T11:38:59.476Z,31.99
2018-08-13T11:39:59.499Z,32.09
2018-08-13T11:40:59.529Z,32.18
2018-08-13T11:41:59.555Z,32.18
2018-08-13T11:42:59.580Z,32.18
2018-08-13T11:43:59.607Z,32.09
2018-08-13T11:44:59.664Z,32.28
2018-08-13T11:45:59.660Z,32.28
2018-08-13T11:46:59.687Z,32.09
2018-08-13T11:47:59.751Z,31.99
2018-08-13T11:48:59.741Z,32.18
2018-08-13T11:49:59.767Z,31.99
2018-08-13T11:50:59.794Z,31.99
2018-08-13T11:51:59.822Z,32.09
2018-08-13T11:52:59.850Z,31.99
2018-08-13T11:53:59.875Z,31.99
2018-08-13T11:54:59.902Z,31.99
2018-08-13T11:55:59.929Z,31.99
2018-08-13T11:56:59.957Z,32.09
2018-08-13T11:58:00.015Z,31.99
2018-08-13T11:59:00.017Z,32.09
2018-08-13T12:00:00.076Z,32.18
2018-08-13T12:01:00.092Z,32.09
2018-08-13T12:02:00.136Z,31.99
2018-08-13T12:03:00.117Z,32.09
2018-08-13T12:04:00.145Z,31.99
2018-08-13T12:05:00.172Z,31.99
2018-08-13T12:06:00.198Z,31.89
2018-08-13T12:07:00.225Z,31.99
2018-08-13T12:08:00.253Z,32.09
2018-08-13T12:09:00.281Z,32.09
2018-08-13T12:10:00.306Z,32.18
2018-08-13T12:11:00.334Z,31.99
2018-08-13T12:12:00.364Z,32.09
2018-08-13T12:13:00.387Z,32.09
2018-08-13T12:14:00.449Z,31.99
2018-08-13T12:15:00.440Z,31.99
2018-08-13T12:16:00.467Z,31.99
2018-08-13T12:17:00.495Z,31.99
2018-08-13T12:18:00.522Z,31.99
2018-08-13T12:19:00.548Z,31.99
2018-08-13T12:20:00.578Z,31.99
2018-08-13T12:21:00.602Z,31.99
2018-08-13T12:22:00.628Z,31.99
2018-08-13T12:23:00.656Z,31.99
2018-08-13T12:24:00.683Z,31.99
2018-08-13T12:25:00.709Z,31.99
2018-08-13T12:26:00.736Z,31.99
2018-08-13T12:27:00.804Z,32.09
2018-08-13T12:28:00.795Z,32.09
2018-08-13T12:29:00.817Z,31.99
2018-08-13T12:30:00.843Z,32.09
2018-08-13T12:31:00.871Z,31.99
2018-08-13T12:32:00.908Z,32.09
2018-08-13T12:33:00.924Z,32.28
2018-08-13T12:34:00.952Z,31.99
2018-08-13T12:35:00.977Z,32.09
2018-08-13T12:36:01.006Z,32.18
2018-08-13T12:37:01.032Z,32.09
2018-08-13T12:38:01.060Z,32.09
2018-08-13T12:39:01.101Z,31.89
2018-08-13T12:40:01.113Z,31.99
2018-08-13T12:41:01.179Z,32.18
2018-08-13T12:42:01.169Z,31.89
2018-08-13T12:43:01.194Z,32.18
2018-08-13T12:44:01.220Z,32.09
2018-08-13T12:45:01.271Z,32.18
2018-08-13T12:46:01.274Z,31.99
2018-08-13T12:47:01.301Z,31.99
2018-08-13T12:48:01.346Z,31.99
2018-08-13T12:49:01.355Z,32.09
2018-08-13T12:50:01.384Z,31.99
2018-08-13T12:51:01.412Z,32.09
2018-08-13T12:52:01.438Z,31.99
2018-08-13T12:53:01.464Z,32.09